createdAt,value
2023-01-08T00:00:03.934Z,4.20
2023-01-08T00:01:03.994Z,4.30
2023-01-08T00:02:03.885Z,4.40
2023-01-08T00:03:04.097Z,4.70
2023-01-08T00:04:03.953Z,4.60
2023-01-08T00:05:03.851Z,4.50
2023-01-08T00:06:03.835Z,4.30
2023-01-08T00:07:03.847Z,4.10
2023-01-08T00:08:03.821Z,4.60
2023-01-08T00:09:03.805Z,4.00
2023-01-08T00:10:03.790Z,4.10
2023-01-08T00:11:03.883Z,4.20
2023-01-08T00:12:03.772Z,3.70
2023-01-08T00:13:03.764Z,4.00
2023-01-08T00:14:03.733Z,4.10
2023-01-08T00:15:03.721Z,3.70
2023-01-08T00:16:03.710Z,4.10
2023-01-08T00:17:03.702Z,4.00
2023-01-08T00:18:05.878Z,4.10
2023-01-08T00:19:03.671Z,3.70
2023-01-08T00:20:03.657Z,3.70
2023-01-08T00:21:03.638Z,3.80
2023-01-08T00:22:03.622Z,3.90
2023-01-08T00:23:03.632Z,3.90
2023-01-08T00:24:03.649Z,3.50
2023-01-08T00:25:03.595Z,3.80
2023-01-08T00:26:03.577Z,3.90
2023-01-08T00:27:03.675Z,3.90
2023-01-08T00:28:03.573Z,3.80
2023-01-08T00:29:03.538Z,3.60
2023-01-08T00:30:03.526Z,3.60
2023-01-08T00:31:03.961Z,4.00
2023-01-08T00:32:03.499Z,3.60
2023-01-08T00:33:03.502Z,3.60
2023-01-08T00:34:03.470Z,3.60
2023-01-08T00:35:03.465Z,3.90
2023-01-08T00:36:03.447Z,4.00
2023-01-08T00:37:03.439Z,3.60
2023-01-08T00:38:03.438Z,3.80
2023-01-08T00:39:03.412Z,3.60
2023-01-08T00:40:03.393Z,3.60
2023-01-08T00:41:03.384Z,3.50
2023-01-08T00:42:03.372Z,3.60
2023-01-08T00:43:03.572Z,3.90
2023-01-08T00:44:03.348Z,3.80
2023-01-08T00:45:03.339Z,3.00
2023-01-08T00:46:03.442Z,3.50
2023-01-08T00:47:03.308Z,3.60
2023-01-08T00:48:03.307Z,3.40
2023-01-08T00:49:03.280Z,3.40
2023-01-08T00:50:03.270Z,3.60
2023-01-08T00:51:03.271Z,3.40
2023-01-08T00:52:03.252Z,3.70
2023-01-08T00:53:03.254Z,3.50
2023-01-08T00:54:03.217Z,3.70
2023-01-08T00:55:03.212Z,3.60
2023-01-08T00:56:03.229Z,3.60
2023-01-08T00:57:03.186Z,3.40
2023-01-08T00:58:03.199Z,3.30
2023-01-08T00:59:03.287Z,3.30
2023-01-08T01:00:03.163Z,3.60
2023-01-08T01:01:03.195Z,3.20
2023-01-08T01:02:03.315Z,3.60
2023-01-08T01:03:03.107Z,3.30
2023-01-08T01:04:03.223Z,3.40
2023-01-08T01:05:03.085Z,3.40
2023-01-08T01:06:03.084Z,3.20
2023-01-08T01:07:03.048Z,3.40
2023-01-08T01:08:03.043Z,3.30
2023-01-08T01:09:03.045Z,3.50
2023-01-08T01:10:03.015Z,3.20
2023-01-08T01:11:03.001Z,3.50
2023-01-08T01:12:03.007Z,3.50
2023-01-08T01:13:02.974Z,3.40
2023-01-08T01:14:02.982Z,3.50
2023-01-08T01:15:03.077Z,3.00
2023-01-08T01:16:02.950Z,3.30
2023-01-08T01:17:03.023Z,3.30
2023-01-08T01:18:02.920Z,3.30
2023-01-08T01:19:02.920Z,3.70
2023-01-08T01:20:02.884Z,3.00
2023-01-08T01:21:02.882Z,3.30
2023-01-08T01:22:02.858Z,3.50
2023-01-08T01:23:02.868Z,3.30
2023-01-08T01:24:02.859Z,3.80
2023-01-08T01:25:02.822Z,3.70
2023-01-08T01:26:02.811Z,3.10
2023-01-08T01:27:02.792Z,3.40
2023-01-08T01:28:02.789Z,3.30
2023-01-08T01:29:02.789Z,3.70
2023-01-08T01:30:02.762Z,3.00
2023-01-08T01:31:02.938Z,3.10
2023-01-08T01:32:02.732Z,3.60
2023-01-08T01:33:02.718Z,3.40
2023-01-08T01:34:02.723Z,3.60
2023-01-08T01:35:02.695Z,3.40
2023-01-08T01:36:02.678Z,3.20
2023-01-08T01:37:02.667Z,3.20
2023-01-08T01:38:02.658Z,3.40
2023-01-08T01:39:02.660Z,3.00
2023-01-08T01:40:02.631Z,3.30
2023-01-08T01:41:02.620Z,3.60
2023-01-08T01:42:02.612Z,3.10
2023-01-08T01:43:02.594Z,3.40
2023-01-08T01:44:02.611Z,3.10
2023-01-08T01:45:02.575Z,3.10
2023-01-08T01:46:02.658Z,3.50
2023-01-08T01:47:02.559Z,3.50
2023-01-08T01:48:02.548Z,3.50
2023-01-08T01:49:02.532Z,3.30
2023-01-08T01:50:02.503Z,3.50
2023-01-08T01:51:02.508Z,3.30
2023-01-08T01:52:02.494Z,3.00
2023-01-08T01:53:02.466Z,3.20
2023-01-08T01:54:02.464Z,3.20
2023-01-08T01:55:02.443Z,3.40
2023-01-08T01:56:02.452Z,3.30
2023-01-08T01:57:02.413Z,3.40
2023-01-08T01:58:02.397Z,3.10
2023-01-08T01:59:02.402Z,3.50
2023-01-08T02:00:02.379Z,3.60
2023-01-08T02:01:02.418Z,3.10
2023-01-08T02:02:02.573Z,3.30
2023-01-08T02:03:02.444Z,3.50
2023-01-08T02:04:02.437Z,3.40
2023-01-08T02:05:02.310Z,3.00
2023-01-08T02:06:02.293Z,3.10
2023-01-08T02:07:02.276Z,3.40
2023-01-08T02:08:02.272Z,3.40
2023-01-08T02:09:02.256Z,3.10
2023-01-08T02:10:02.264Z,3.10
2023-01-08T02:11:02.226Z,3.50
2023-01-08T02:12:02.214Z,3.30
2023-01-08T02:13:02.200Z,3.30
2023-01-08T02:14:02.203Z,3.20
2023-01-08T02:15:02.187Z,3.40
2023-01-08T02:16:02.167Z,3.30
2023-01-08T02:17:02.216Z,3.20
2023-01-08T02:18:02.138Z,3.40
2023-01-08T02:19:02.249Z,3.70
2023-01-08T02:20:02.131Z,3.40
2023-01-08T02:21:02.102Z,3.50
2023-01-08T02:22:02.090Z,3.10
2023-01-08T02:23:02.075Z,3.00
2023-01-08T02:24:02.068Z,3.50
2023-01-08T02:25:02.065Z,3.70
2023-01-08T02:26:02.039Z,3.50
2023-01-08T02:27:02.021Z,3.50
2023-01-08T02:28:02.018Z,3.20
2023-01-08T02:29:02.011Z,3.60
2023-01-08T02:30:02.074Z,3.50
2023-01-08T02:31:02.059Z,3.50
2023-01-08T02:32:01.972Z,3.60
2023-01-08T02:33:01.968Z,3.50
2023-01-08T02:34:01.951Z,3.20
2023-01-08T02:35:01.961Z,3.30
2023-01-08T02:36:01.909Z,3.60
2023-01-08T02:37:01.905Z,3.50
2023-01-08T02:38:01.899Z,3.80
2023-01-08T02:39:01.870Z,3.60
2023-01-08T02:40:01.886Z,3.40
2023-01-08T02:41:01.855Z,3.30
2023-01-08T02:42:01.837Z,3.30
2023-01-08T02:43:01.823Z,3.40
2023-01-08T02:44:01.825Z,3.30
2023-01-08T02:45:01.811Z,3.40
2023-01-08T02:46:01.896Z,3.60
2023-01-08T02:47:01.767Z,3.60
2023-01-08T02:48:01.760Z,3.30
2023-01-08T02:49:01.756Z,3.00
2023-01-08T02:50:01.753Z,3.20
2023-01-08T02:51:01.829Z,3.10
2023-01-08T02:52:01.703Z,2.80
2023-01-08T02:53:01.695Z,3.40
2023-01-08T02:54:01.677Z,3.70
2023-01-08T02:55:01.676Z,3.40
2023-01-08T02:56:01.677Z,3.40
2023-01-08T02:57:01.637Z,3.30
2023-01-08T02:58:01.629Z,2.90
2023-01-08T02:59:01.633Z,3.50
2023-01-08T03:00:01.620Z,3.70
2023-01-08T03:01:01.630Z,3.30
2023-01-08T03:02:01.769Z,3.30
2023-01-08T03:03:01.587Z,3.30
2023-01-08T03:04:01.589Z,3.50
2023-01-08T03:05:01.549Z,3.50
2023-01-08T03:06:01.526Z,3.80
2023-01-08T03:07:01.765Z,3.60
2023-01-08T03:08:01.500Z,3.70
2023-01-08T03:09:01.487Z,3.60
2023-01-08T03:10:01.491Z,3.40
2023-01-08T03:11:01.455Z,3.60
2023-01-08T03:12:01.462Z,3.40
2023-01-08T03:13:01.434Z,3.60
2023-01-08T03:14:01.421Z,3.50
2023-01-08T03:15:01.441Z,3.70
2023-01-08T03:16:01.395Z,3.70
2023-01-08T03:17:01.460Z,3.50
2023-01-08T03:18:01.373Z,3.70
2023-01-08T03:19:01.373Z,3.60
2023-01-08T03:20:01.360Z,3.80
2023-01-08T03:21:01.330Z,3.80
2023-01-08T03:22:01.321Z,3.70
2023-01-08T03:23:01.425Z,3.80
2023-01-08T03:24:01.296Z,3.60
2023-01-08T03:25:01.292Z,3.90
2023-01-08T03:26:01.268Z,3.90
2023-01-08T03:27:01.254Z,3.70
2023-01-08T03:28:01.250Z,3.60
2023-01-08T03:29:01.229Z,3.90
2023-01-08T03:30:01.231Z,3.60
2023-01-08T03:31:01.245Z,3.90
2023-01-08T03:32:01.194Z,3.80
2023-01-08T03:33:01.180Z,3.80
2023-01-08T03:34:01.165Z,3.80
2023-01-08T03:35:01.171Z,3.80
2023-01-08T03:36:01.153Z,3.90
2023-01-08T03:37:01.133Z,4.00
2023-01-08T03:38:01.117Z,3.90
2023-01-08T03:39:01.218Z,3.80
2023-01-08T03:40:01.171Z,3.70
2023-01-08T03:41:01.073Z,3.80
2023-01-08T03:42:01.070Z,3.50
2023-01-08T03:43:01.051Z,4.10
2023-01-08T03:44:01.048Z,3.80
2023-01-08T03:45:01.059Z,3.90
2023-01-08T03:46:01.119Z,3.80
2023-01-08T03:47:01.005Z,4.30
2023-01-08T03:48:00.996Z,4.00
2023-01-08T03:49:00.978Z,3.90
2023-01-08T03:50:00.964Z,4.00
2023-01-08T03:51:00.966Z,3.70
2023-01-08T03:52:00.940Z,4.20
2023-01-08T03:53:01.208Z,3.70
2023-01-08T03:54:00.918Z,4.20
2023-01-08T03:55:01.015Z,4.20
2023-01-08T03:56:00.904Z,3.70
2023-01-08T03:57:00.892Z,4.00
2023-01-08T03:58:00.870Z,4.30
2023-01-08T03:59:00.846Z,4.10
2023-01-08T04:00:00.844Z,3.90
2023-01-08T04:01:00.850Z,4.20
2023-01-08T04:02:00.987Z,3.90
2023-01-08T04:03:00.796Z,4.10
2023-01-08T04:04:00.821Z,4.00
2023-01-08T04:05:00.773Z,4.20
2023-01-08T04:06:00.771Z,3.90
2023-01-08T04:07:00.759Z,4.10
2023-01-08T04:08:00.739Z,4.30
2023-01-08T04:09:00.736Z,4.00
2023-01-08T04:10:00.706Z,4.00
2023-01-08T04:11:00.821Z,4.10
2023-01-08T04:12:00.686Z,3.90
2023-01-08T04:13:00.671Z,4.10
2023-01-08T04:14:00.676Z,4.10
2023-01-08T04:15:00.646Z,4.00
2023-01-08T04:16:00.782Z,4.20
2023-01-08T04:17:00.630Z,4.20
2023-01-08T04:18:00.622Z,3.90
2023-01-08T04:19:00.604Z,4.40
2023-01-08T04:20:00.592Z,4.00
2023-01-08T04:21:00.591Z,4.00
2023-01-08T04:22:00.556Z,4.10
2023-01-08T04:23:00.545Z,4.30
2023-01-08T04:24:00.535Z,4.10
2023-01-08T04:25:00.535Z,3.80
2023-01-08T04:26:00.521Z,4.30
2023-01-08T04:27:00.607Z,4.00
2023-01-08T04:28:00.492Z,4.20
2023-01-08T04:29:00.470Z,3.90
2023-01-08T04:30:00.454Z,4.40
2023-01-08T04:31:00.577Z,4.30
2023-01-08T04:32:00.438Z,3.90
2023-01-08T04:33:00.418Z,4.70
2023-01-08T04:34:00.405Z,3.90
2023-01-08T04:35:00.392Z,4.10
2023-01-08T04:36:00.395Z,4.30
2023-01-08T04:37:00.369Z,3.90
2023-01-08T04:38:00.356Z,3.90
2023-01-08T04:39:00.337Z,3.90
2023-01-08T04:40:00.326Z,4.20
2023-01-08T04:41:00.355Z,4.20
2023-01-08T04:42:00.312Z,4.20
2023-01-08T04:43:00.323Z,3.50
2023-01-08T04:44:00.277Z,3.90
2023-01-08T04:45:00.262Z,4.10
2023-01-08T04:46:00.343Z,4.00
2023-01-08T04:47:00.243Z,3.90
2023-01-08T04:48:00.229Z,4.10
2023-01-08T04:49:00.237Z,3.60
2023-01-08T04:50:00.199Z,3.70
2023-01-08T04:51:00.265Z,3.80
2023-01-08T04:52:00.176Z,3.60
2023-01-08T04:53:00.157Z,3.50
2023-01-08T04:54:00.150Z,3.60
2023-01-08T04:55:00.136Z,3.40
2023-01-08T04:56:00.138Z,3.10
2023-01-08T04:57:00.163Z,3.10
2023-01-08T04:58:00.111Z,3.80
2023-01-08T04:59:00.128Z,3.50
2023-01-08T05:00:00.125Z,3.50
2023-01-08T05:01:00.059Z,3.40
2023-01-08T05:02:00.205Z,3.50
2023-01-08T05:03:00.101Z,3.50
2023-01-08T05:04:00.026Z,3.40
2023-01-08T05:05:00.022Z,3.70
2023-01-08T05:05:59.996Z,3.80
2023-01-08T05:07:00.109Z,3.30
2023-01-08T05:07:59.973Z,3.70
2023-01-08T05:08:59.957Z,4.10
2023-01-08T05:09:59.945Z,3.70
2023-01-08T05:10:59.939Z,4.20
2023-01-08T05:11:59.938Z,3.80
2023-01-08T05:12:59.909Z,4.00
2023-01-08T05:13:59.898Z,3.50
2023-01-08T05:15:00.005Z,4.00
2023-01-08T05:15:59.965Z,3.90
2023-01-08T05:16:59.878Z,3.70
2023-01-08T05:17:59.843Z,4.30
2023-01-08T05:18:59.841Z,3.80
2023-01-08T05:19:59.825Z,4.20
2023-01-08T05:20:59.805Z,4.00
2023-01-08T05:21:59.813Z,3.10
2023-01-08T05:22:59.801Z,4.10
2023-01-08T05:23:59.769Z,3.70
2023-01-08T05:24:59.763Z,4.20
2023-01-08T05:25:59.762Z,4.10
2023-01-08T05:26:59.741Z,4.30
2023-01-08T05:27:59.722Z,4.40
2023-01-08T05:28:59.700Z,4.50
2023-01-08T05:29:59.691Z,4.70
2023-01-08T05:30:59.849Z,4.50
2023-01-08T05:31:59.686Z,4.40
2023-01-08T05:32:59.655Z,4.50
2023-01-08T05:33:59.652Z,4.50
2023-01-08T05:34:59.632Z,4.10
2023-01-08T05:35:59.620Z,4.50
2023-01-08T05:36:59.626Z,4.50
2023-01-08T05:37:59.594Z,4.80
2023-01-08T05:38:59.584Z,4.90
2023-01-08T05:39:59.572Z,4.10
2023-01-08T05:40:59.554Z,4.60
2023-01-08T05:41:59.550Z,4.90
2023-01-08T05:42:59.519Z,4.90
2023-01-08T05:43:59.511Z,4.60
2023-01-08T05:44:59.496Z,4.80
2023-01-08T05:45:59.544Z,4.60
2023-01-08T05:46:59.624Z,4.00
2023-01-08T05:47:59.462Z,4.60
2023-01-08T05:48:59.449Z,4.70
2023-01-08T05:49:59.444Z,5.10
2023-01-08T05:50:59.439Z,4.80
2023-01-08T05:51:59.407Z,4.40
2023-01-08T05:52:59.407Z,4.90
2023-01-08T05:53:59.379Z,5.00
2023-01-08T05:54:59.372Z,4.50
2023-01-08T05:55:59.357Z,4.40
2023-01-08T05:56:59.343Z,4.70
2023-01-08T05:57:59.339Z,5.10
2023-01-08T05:58:59.321Z,3.70
2023-01-08T05:59:59.306Z,4.30
2023-01-08T06:00:59.291Z,4.40
2023-01-08T06:01:59.292Z,4.80
2023-01-08T06:02:59.496Z,4.70
2023-01-08T06:03:59.306Z,4.50
2023-01-08T06:04:59.239Z,5.30
2023-01-08T06:05:59.223Z,4.80
2023-01-08T06:06:59.218Z,4.50
2023-01-08T06:07:59.215Z,4.60
2023-01-08T06:08:59.188Z,5.00
2023-01-08T06:09:59.183Z,5.20
2023-01-08T06:10:59.159Z,4.70
2023-01-08T06:11:59.144Z,5.50
2023-01-08T06:12:59.153Z,5.00
2023-01-08T06:13:59.125Z,4.60
2023-01-08T06:14:59.114Z,4.50
2023-01-08T06:15:59.187Z,5.10
2023-01-08T06:16:59.116Z,5.00
2023-01-08T06:17:59.089Z,4.80
2023-01-08T06:18:59.080Z,5.10
2023-01-08T06:19:59.042Z,5.00
2023-01-08T06:20:59.048Z,4.30
2023-01-08T06:21:59.029Z,4.80
2023-01-08T06:22:59.023Z,4.90
2023-01-08T06:23:58.995Z,5.50
2023-01-08T06:24:58.979Z,5.40
2023-01-08T06:25:58.969Z,5.20
2023-01-08T06:26:58.963Z,5.70
2023-01-08T06:27:58.956Z,5.20
2023-01-08T06:28:58.926Z,5.70
2023-01-08T06:29:58.915Z,5.40
2023-01-08T06:30:58.934Z,5.20
2023-01-08T06:31:58.890Z,5.10
2023-01-08T06:32:58.894Z,5.10
2023-01-08T06:33:58.870Z,5.60
2023-01-08T06:34:58.977Z,5.00
2023-01-08T06:35:58.839Z,4.70
2023-01-08T06:36:58.823Z,5.50
2023-01-08T06:37:58.831Z,5.30
2023-01-08T06:38:58.822Z,6.00
2023-01-08T06:39:58.803Z,5.40
2023-01-08T06:40:58.773Z,5.80
2023-01-08T06:41:58.759Z,5.60
2023-01-08T06:42:58.761Z,5.70
2023-01-08T06:43:58.733Z,5.80
2023-01-08T06:44:58.771Z,5.80
2023-01-08T06:45:58.726Z,5.30
2023-01-08T06:46:58.700Z,5.80
2023-01-08T06:47:58.694Z,5.80
2023-01-08T06:48:58.675Z,5.40
2023-01-08T06:49:58.651Z,6.20
2023-01-08T06:50:58.760Z,5.50
2023-01-08T06:51:58.627Z,5.70
2023-01-08T06:52:58.632Z,6.10
2023-01-08T06:53:58.597Z,6.20
2023-01-08T06:54:58.590Z,5.90
2023-01-08T06:55:58.643Z,5.80
2023-01-08T06:56:58.569Z,5.60
2023-01-08T06:57:58.596Z,5.10
2023-01-08T06:58:58.547Z,5.50
2023-01-08T06:59:58.523Z,5.50
2023-01-08T07:00:58.509Z,5.00
2023-01-08T07:01:58.661Z,5.00
2023-01-08T07:02:58.633Z,4.40
2023-01-08T07:03:58.476Z,4.00
2023-01-08T07:04:58.473Z,4.10
2023-01-08T07:05:58.491Z,4.70
2023-01-08T07:06:58.580Z,4.70
2023-01-08T07:07:58.444Z,4.40
2023-01-08T07:08:58.422Z,4.30
2023-01-08T07:09:58.399Z,4.30
2023-01-08T07:10:58.384Z,4.40
2023-01-08T07:11:58.374Z,3.70
2023-01-08T07:12:58.425Z,5.00
2023-01-08T07:13:58.358Z,4.70
2023-01-08T07:14:58.334Z,4.80
2023-01-08T07:15:58.372Z,4.90
2023-01-08T07:16:58.309Z,4.60
2023-01-08T07:17:58.311Z,3.90
2023-01-08T07:18:58.291Z,4.70
2023-01-08T07:19:58.265Z,4.50
2023-01-08T07:20:58.255Z,4.80
2023-01-08T07:21:58.232Z,4.70
2023-01-08T07:22:58.342Z,4.70
2023-01-08T07:23:58.226Z,5.00
2023-01-08T07:24:58.200Z,4.10
2023-01-08T07:25:58.182Z,4.50
2023-01-08T07:26:58.176Z,4.20
2023-01-08T07:27:58.157Z,4.40
2023-01-08T07:28:58.167Z,4.80
2023-01-08T07:29:58.129Z,4.70
2023-01-08T07:30:58.201Z,4.50
2023-01-08T07:31:58.117Z,5.50
2023-01-08T07:32:58.093Z,4.90
2023-01-08T07:33:58.094Z,4.60
2023-01-08T07:34:58.067Z,4.60
2023-01-08T07:35:58.055Z,4.70
2023-01-08T07:36:58.046Z,5.20
2023-01-08T07:37:58.036Z,4.60
2023-01-08T07:38:58.155Z,4.00
2023-01-08T07:39:58.001Z,4.60
2023-01-08T07:40:57.989Z,4.50
2023-01-08T07:41:57.974Z,4.50
2023-01-08T07:42:57.975Z,4.80
2023-01-08T07:43:57.965Z,4.50
2023-01-08T07:44:57.942Z,4.60
2023-01-08T07:45:57.928Z,4.10
2023-01-08T07:46:57.918Z,4.70
2023-01-08T07:47:57.904Z,4.40
2023-01-08T07:48:57.900Z,4.60
2023-01-08T07:49:57.884Z,4.60
2023-01-08T07:50:57.865Z,4.40
2023-01-08T07:51:57.845Z,4.60
2023-01-08T07:52:57.838Z,4.70
2023-01-08T07:53:57.834Z,4.10
2023-01-08T07:54:57.917Z,4.30
2023-01-08T07:55:57.798Z,4.30
2023-01-08T07:56:57.790Z,3.90
2023-01-08T07:57:57.781Z,4.10
2023-01-08T07:58:57.776Z,4.40
2023-01-08T07:59:57.744Z,4.50
2023-01-08T08:00:59.258Z,4.10
2023-01-08T08:01:57.928Z,4.30
2023-01-08T08:02:57.854Z,4.80
2023-01-08T08:03:57.714Z,4.40
2023-01-08T08:04:57.674Z,4.30
2023-01-08T08:05:57.663Z,4.30
2023-01-08T08:06:57.657Z,4.40
2023-01-08T08:07:57.638Z,3.90
2023-01-08T08:08:57.643Z,4.10
2023-01-08T08:09:57.607Z,4.60
2023-01-08T08:10:57.714Z,4.20
2023-01-08T08:11:57.583Z,4.20
2023-01-08T08:12:57.579Z,3.80
2023-01-08T08:13:57.576Z,4.10
2023-01-08T08:14:57.558Z,4.30
2023-01-08T08:15:57.552Z,4.20
2023-01-08T08:16:57.521Z,4.40
2023-01-08T08:17:57.503Z,4.40
2023-01-08T08:18:57.513Z,5.10
2023-01-08T08:19:57.478Z,4.80
2023-01-08T08:20:57.467Z,4.10
2023-01-08T08:21:57.452Z,4.20
2023-01-08T08:22:57.443Z,4.40
2023-01-08T08:23:57.450Z,4.90
2023-01-08T08:24:57.420Z,4.90
2023-01-08T08:25:57.400Z,5.20
2023-01-08T08:26:57.572Z,5.60
2023-01-08T08:27:57.384Z,4.90
2023-01-08T08:28:57.400Z,4.80
2023-01-08T08:29:57.354Z,4.10
2023-01-08T08:30:57.420Z,4.40
2023-01-08T08:31:57.321Z,4.40
2023-01-08T08:32:57.313Z,4.00
2023-01-08T08:33:57.304Z,3.60
2023-01-08T08:34:57.302Z,4.30
2023-01-08T08:35:57.276Z,4.20
2023-01-08T08:36:57.265Z,4.00
2023-01-08T08:37:57.256Z,4.20
2023-01-08T08:38:57.242Z,4.10
2023-01-08T08:39:57.264Z,4.00
2023-01-08T08:40:57.221Z,3.90
2023-01-08T08:41:57.195Z,3.70
2023-01-08T08:42:57.199Z,3.70
2023-01-08T08:43:57.171Z,3.90
2023-01-08T08:44:57.168Z,4.00
2023-01-08T08:45:57.145Z,3.60
2023-01-08T08:46:57.308Z,3.40
2023-01-08T08:47:57.117Z,3.50
2023-01-08T08:48:57.105Z,3.70
2023-01-08T08:49:57.099Z,3.60
2023-01-08T08:50:57.083Z,3.50
2023-01-08T08:51:57.069Z,3.60
2023-01-08T08:52:57.052Z,3.30
2023-01-08T08:53:57.047Z,3.30
2023-01-08T08:54:57.041Z,3.30
2023-01-08T08:55:57.008Z,3.40
2023-01-08T08:56:56.999Z,3.50
2023-01-08T08:57:56.984Z,3.50
2023-01-08T08:58:57.083Z,3.60
2023-01-08T08:59:56.981Z,3.30
2023-01-08T09:00:56.953Z,3.50
2023-01-08T09:01:57.091Z,3.60
2023-01-08T09:02:57.046Z,3.50
2023-01-08T09:03:56.933Z,3.60
2023-01-08T09:04:56.922Z,3.40
2023-01-08T09:05:59.568Z,3.50
2023-01-08T09:06:56.913Z,3.10
2023-01-08T09:07:56.862Z,3.40
2023-01-08T09:08:56.848Z,3.30
2023-01-08T09:09:56.839Z,3.30
2023-01-08T09:10:56.838Z,3.00
2023-01-08T09:11:56.822Z,3.50
2023-01-08T09:12:56.800Z,3.30
2023-01-08T09:13:56.806Z,3.90
2023-01-08T09:14:56.968Z,3.60
2023-01-08T09:15:57.483Z,3.50
2023-01-08T09:16:56.743Z,3.60
2023-01-08T09:17:56.743Z,4.00
2023-01-08T09:18:57.000Z,3.70
2023-01-08T09:19:58.467Z,3.80
2023-01-08T09:20:56.700Z,3.50
2023-01-08T09:21:56.675Z,3.80
2023-01-08T09:22:56.664Z,3.60
2023-01-08T09:23:56.648Z,3.60
2023-01-08T09:24:56.656Z,3.70
2023-01-08T09:25:56.619Z,3.60
2023-01-08T09:26:56.609Z,3.60
2023-01-08T09:27:56.598Z,4.20
2023-01-08T09:28:56.586Z,4.30
2023-01-08T09:29:56.596Z,4.00
2023-01-08T09:30:56.697Z,4.20
2023-01-08T09:31:56.602Z,4.20
2023-01-08T09:32:56.533Z,4.00
2023-01-08T09:33:56.527Z,4.00
2023-01-08T09:34:56.533Z,3.70
2023-01-08T09:35:56.499Z,4.10
2023-01-08T09:36:56.485Z,3.80
2023-01-08T09:37:56.479Z,3.60
2023-01-08T09:38:56.454Z,3.70
2023-01-08T09:40:02.278Z,3.90
2023-01-08T09:40:57.444Z,3.90
2023-01-08T09:41:56.415Z,3.80
2023-01-08T09:42:56.420Z,3.70
2023-01-08T09:43:56.389Z,4.10
2023-01-08T09:44:56.389Z,4.30
2023-01-08T09:45:56.368Z,3.50
2023-01-08T09:46:56.484Z,4.10
2023-01-08T09:47:56.344Z,4.00
2023-01-08T09:48:56.340Z,4.00
2023-01-08T09:49:56.334Z,3.70
2023-01-08T09:50:56.329Z,4.00
2023-01-08T09:51:56.290Z,4.80
2023-01-08T09:52:56.273Z,4.50
2023-01-08T09:53:56.288Z,3.60
2023-01-08T09:54:56.272Z,4.00
2023-01-08T09:56:09.213Z,3.80
2023-01-08T09:56:57.228Z,3.60
2023-01-08T09:57:56.218Z,3.90
2023-01-08T09:58:56.199Z,3.60
2023-01-08T09:59:56.198Z,4.30
2023-01-08T10:00:56.267Z,4.70
2023-01-08T10:01:56.264Z,4.60
2023-01-08T10:02:56.374Z,4.60
2023-01-08T10:03:56.152Z,4.70
2023-01-08T10:04:56.158Z,4.90
2023-01-08T10:05:56.107Z,4.20
2023-01-08T10:06:56.094Z,3.60
2023-01-08T10:07:56.085Z,3.60
2023-01-08T10:08:56.075Z,3.50
2023-01-08T10:09:56.089Z,3.60
2023-01-08T10:10:56.041Z,4.50
2023-01-08T10:11:56.037Z,5.00
2023-01-08T10:12:56.039Z,4.10
2023-01-08T10:13:56.015Z,4.10
2023-01-08T10:14:56.007Z,4.00
2023-01-08T10:15:56.026Z,4.40
2023-01-08T10:16:55.980Z,4.00
2023-01-08T10:17:55.964Z,3.30
2023-01-08T10:18:56.074Z,3.40
2023-01-08T10:19:55.947Z,3.40
2023-01-08T10:20:55.921Z,4.30
2023-01-08T10:21:55.910Z,7.70
2023-01-08T10:22:55.893Z,6.20
2023-01-08T10:23:55.884Z,4.60
2023-01-08T10:24:55.890Z,4.30
2023-01-08T10:25:55.853Z,4.00
2023-01-08T10:26:55.848Z,4.90
2023-01-08T10:27:55.830Z,4.40
2023-01-08T10:28:55.811Z,4.40
2023-01-08T10:29:55.806Z,3.50
2023-01-08T10:30:55.810Z,3.70
2023-01-08T10:31:55.776Z,4.50
2023-01-08T10:32:55.784Z,3.60
2023-01-08T10:33:55.755Z,3.40
2023-01-08T10:34:55.762Z,4.80
2023-01-08T10:35:55.751Z,3.60
2023-01-08T10:36:55.727Z,2.80
2023-01-08T10:37:55.703Z,3.10
2023-01-08T10:38:55.692Z,2.90
2023-01-08T10:39:55.680Z,3.30
2023-01-08T10:40:55.688Z,3.00
2023-01-08T10:41:55.653Z,3.30
2023-01-08T10:42:55.638Z,3.10
2023-01-08T10:43:55.630Z,3.10
2023-01-08T10:44:55.610Z,3.30
2023-01-08T10:45:55.638Z,3.30
2023-01-08T10:46:55.590Z,3.20
2023-01-08T10:47:55.578Z,3.00
2023-01-08T10:48:55.581Z,3.40
2023-01-08T10:49:55.552Z,3.50
2023-01-08T10:50:55.566Z,3.40
2023-01-08T10:51:55.531Z,3.20
2023-01-08T10:52:55.509Z,3.30
2023-01-08T10:53:55.504Z,3.40
2023-01-08T10:54:55.482Z,3.50
2023-01-08T10:55:55.490Z,3.60
2023-01-08T10:56:55.460Z,4.00
2023-01-08T10:57:55.448Z,3.20
2023-01-08T10:58:55.432Z,3.40
2023-01-08T10:59:55.431Z,4.60
2023-01-08T11:00:55.474Z,3.40
2023-01-08T11:01:55.487Z,3.50
2023-01-08T11:02:55.382Z,3.20
2023-01-08T11:03:55.379Z,3.00
2023-01-08T11:04:55.360Z,3.60
2023-01-08T11:05:55.359Z,3.60
2023-01-08T11:06:55.355Z,3.40
2023-01-08T11:07:55.320Z,3.60
2023-01-08T11:08:55.314Z,2.80
2023-01-08T11:09:55.299Z,3.90
2023-01-08T11:10:55.295Z,3.30
2023-01-08T11:11:55.274Z,3.90
2023-01-08T11:12:55.263Z,3.00
2023-01-08T11:13:55.248Z,4.70
2023-01-08T11:14:55.230Z,4.20
2023-01-08T11:15:55.252Z,3.30
2023-01-08T11:16:55.209Z,4.60
2023-01-08T11:17:55.207Z,3.30
2023-01-08T11:18:55.183Z,3.70
2023-01-08T11:19:55.943Z,3.10
2023-01-08T11:20:55.170Z,3.30
2023-01-08T11:21:55.147Z,3.20
2023-01-08T11:22:55.155Z,2.80
2023-01-08T11:23:55.123Z,2.70
2023-01-08T11:24:55.119Z,2.80
2023-01-08T11:25:55.112Z,2.90
2023-01-08T11:26:55.079Z,2.80
2023-01-08T11:27:55.066Z,2.60
2023-01-08T11:28:55.052Z,2.50
2023-01-08T11:29:55.047Z,2.50
2023-01-08T11:30:55.042Z,2.10
2023-01-08T11:31:55.097Z,2.00
2023-01-08T11:32:55.007Z,2.10
2023-01-08T11:33:54.989Z,2.30
2023-01-08T11:34:54.979Z,2.30
2023-01-08T11:35:54.978Z,2.30
2023-01-08T11:36:54.951Z,2.20
2023-01-08T11:37:54.933Z,2.10
2023-01-08T11:38:55.040Z,1.90
2023-01-08T11:39:54.923Z,2.00
2023-01-08T11:40:54.911Z,1.70
2023-01-08T11:41:54.888Z,1.80
2023-01-08T11:42:54.869Z,2.30
2023-01-08T11:43:54.857Z,1.70
2023-01-08T11:44:54.844Z,1.60
2023-01-08T11:45:54.994Z,1.70
2023-01-08T11:46:54.821Z,1.70
2023-01-08T11:47:54.803Z,1.80
2023-01-08T11:48:54.791Z,1.80
2023-01-08T11:49:54.781Z,1.60
2023-01-08T11:50:54.761Z,1.50
2023-01-08T11:51:54.770Z,1.50
2023-01-08T11:52:54.747Z,1.60
2023-01-08T11:53:54.732Z,1.50
2023-01-08T11:54:54.751Z,1.50
2023-01-08T11:55:54.742Z,1.50
2023-01-08T11:56:54.702Z,1.50
2023-01-08T11:57:54.670Z,1.80
2023-01-08T11:58:54.655Z,1.30
2023-01-08T11:59:54.648Z,1.30
2023-01-08T12:00:54.638Z,1.30
2023-01-08T12:01:54.791Z,1.30
2023-01-08T12:02:54.661Z,1.50
2023-01-08T12:03:54.598Z,1.50
2023-01-08T12:04:54.591Z,1.40
2023-01-08T12:05:54.578Z,1.60
2023-01-08T12:06:54.575Z,1.50
2023-01-08T12:07:54.542Z,1.50
2023-01-08T12:08:54.527Z,1.60
2023-01-08T12:09:54.520Z,1.60
2023-01-08T12:10:54.577Z,1.30
2023-01-08T12:11:54.523Z,1.30
2023-01-08T12:12:54.476Z,2.30
2023-01-08T12:13:54.463Z,1.60
2023-01-08T12:14:54.458Z,1.30
2023-01-08T12:15:54.440Z,1.50
2023-01-08T12:16:54.440Z,1.50
2023-01-08T12:17:54.425Z,2.00
2023-01-08T12:18:54.402Z,1.30
2023-01-08T12:19:54.384Z,1.60
2023-01-08T12:20:54.372Z,1.50
2023-01-08T12:21:54.380Z,1.30
2023-01-08T12:22:54.343Z,1.70
2023-01-08T12:23:54.340Z,1.50
2023-01-08T12:24:54.329Z,1.40
2023-01-08T12:25:54.311Z,1.50
2023-01-08T12:26:54.435Z,1.50
2023-01-08T12:27:57.296Z,1.60
2023-01-08T12:28:54.277Z,1.20
2023-01-08T12:29:54.257Z,1.40
2023-01-08T12:30:54.244Z,1.40
2023-01-08T12:32:03.098Z,1.40
2023-01-08T12:32:55.216Z,1.50
2023-01-08T12:33:54.230Z,1.50
2023-01-08T12:34:54.194Z,1.40
2023-01-08T12:35:54.192Z,1.50
2023-01-08T12:36:54.186Z,1.30
2023-01-08T12:37:54.163Z,1.50
2023-01-08T12:38:54.141Z,1.50
2023-01-08T12:39:54.167Z,1.40
2023-01-08T12:40:54.117Z,1.60
2023-01-08T12:41:54.111Z,1.50
2023-01-08T12:43:01.135Z,1.50
2023-01-08T12:43:55.084Z,1.40
2023-01-08T12:44:54.062Z,1.60
2023-01-08T12:45:54.126Z,1.60
2023-01-08T12:46:54.051Z,1.50
2023-01-08T12:47:54.024Z,1.50
2023-01-08T12:48:54.027Z,1.80
2023-01-08T12:49:54.003Z,1.60
2023-01-08T12:50:53.991Z,1.40
2023-01-08T12:51:53.988Z,1.40
2023-01-08T12:52:53.956Z,1.40
2023-01-08T12:53:53.975Z,1.70
2023-01-08T12:54:53.934Z,1.50
2023-01-08T12:55:53.921Z,1.70
2023-01-08T12:56:53.927Z,1.60
2023-01-08T12:57:53.898Z,1.60
2023-01-08T12:58:53.907Z,1.50
2023-01-08T12:59:53.870Z,1.40
2023-01-08T13:00:53.893Z,1.40
2023-01-08T13:01:54.069Z,1.30
2023-01-08T13:02:53.875Z,1.50
2023-01-08T13:03:53.821Z,1.30
2023-01-08T13:04:53.807Z,1.30
2023-01-08T13:05:53.803Z,1.30
2023-01-08T13:06:53.794Z,1.80
2023-01-08T13:07:53.764Z,1.20
2023-01-08T13:08:53.761Z,1.20
2023-01-08T13:09:53.736Z,1.30
2023-01-08T13:10:53.727Z,1.40
2023-01-08T13:11:53.720Z,1.30
2023-01-08T13:12:53.710Z,1.20
2023-01-08T13:13:53.687Z,1.20
2023-01-08T13:14:53.691Z,1.10
2023-01-08T13:15:53.669Z,1.10
2023-01-08T13:16:53.754Z,1.10
2023-01-08T13:17:53.627Z,1.20